Terminal Aerodrome Forecast
Issued by NWS

Current Version | Previous Version | Graphics & Text | Print | Product List | Glossary On
Versions: 1 2 3 4 5 6 7 8 9 10 11 12 13 14 15 16 17 18 19 20 21 22 23 24 25 26 27 28 29 30
000
FTUS41 KILN 211200 AAA
TAFLUK
TAF AMD
KLUK 211234Z 2113/2212 12003KT P6SM BKN008
     FM211330 21007KT P6SM SCT050 BKN100
      TEMPO 2114/2117 3SM TSRA BR OVC025CB
     FM211800 23008KT P6SM SCT050 BKN100
     FM220000 22004KT P6SM SCT050 BKN150
     FM221100 22004KT P6SM BKN040=

USA.gov is the U.S. government's official web portal to all federal, state and local government web resources and services.